Time;durP1;ratioP1;P1;durP2;ratioP2;P2;SDS_P1;SDS_P2;PMS_P1;PMS_P2;Temp;Humidity;BMP_temperature;BMP_pressure;BME280_temperature;BME280_humidity;BME280_pressure;Samples;Min_cycle;Max_cycle;Signal;HPM_P1;HPM_P2
2021/10/23 00:01:17;;;;;;;9.23;3.30;;;6.00;99.90;;;;;;4425189;28;657077;-73
2021/10/23 00:04:05;;;;;;;12.80;3.30;;;6.00;99.90;;;;;;4435950;28;655687;-72
2021/10/23 00:06:52;;;;;;;10.93;2.70;;;5.90;99.90;;;;;;4416809;28;657872;-73
2021/10/23 00:09:40;;;;;;;10.57;2.67;;;5.90;99.90;;;;;;4437557;28;656474;-72
2021/10/23 00:12:27;;;;;;;5.93;2.67;;;5.90;99.90;;;;;;4412331;28;657637;-73
2021/10/23 00:15:15;;;;;;;11.40;2.70;;;5.90;99.90;;;;;;4436053;28;655667;-72
2021/10/23 00:18:04;;;;;;;11.67;2.60;;;5.90;99.90;;;;;;4419506;28;656810;-72
2021/10/23 00:20:51;;;;;;;9.17;2.83;;;6.00;99.90;;;;;;4423375;28;657416;-72
2021/10/23 00:23:39;;;;;;;5.43;1.95;;;6.00;99.90;;;;;;4451157;28;655662;-72
2021/10/23 00:26:26;;;;;;;10.37;2.57;;;6.00;99.90;;;;;;4426953;28;655674;-72
2021/10/23 00:29:14;;;;;;;10.73;2.47;;;6.10;99.90;;;;;;4438179;28;657326;-72
2021/10/23 00:32:01;;;;;;;7.00;2.70;;;6.10;99.90;;;;;;4420947;28;656716;-72
2021/10/23 00:34:50;;;;;;;7.30;2.20;;;6.00;99.90;;;;;;4444932;28;656355;-71
2021/10/23 00:37:38;;;;;;;6.77;2.80;;;6.00;99.90;;;;;;4422588;28;656179;-73
2021/10/23 00:40:26;;;;;;;12.43;2.63;;;5.90;99.90;;;;;;4427954;28;655907;-72
2021/10/23 00:43:13;;;;;;;6.53;2.70;;;5.90;99.90;;;;;;4438581;28;656799;-72
2021/10/23 00:46:00;;;;;;;9.43;2.42;;;5.80;99.90;;;;;;4421947;28;655892;-73
2021/10/23 00:48:48;;;;;;;13.70;2.70;;;5.80;99.90;;;;;;4442920;28;656396;-72
2021/10/23 00:51:37;;;;;;;8.43;3.17;;;5.70;99.90;;;;;;4419195;28;656914;-72
2021/10/23 00:54:25;;;;;;;11.23;3.13;;;5.70;99.90;;;;;;4441697;28;655738;-72
2021/10/23 00:57:13;;;;;;;12.60;3.20;;;5.70;99.90;;;;;;4417723;28;657379;-72
2021/10/23 01:00:01;;;;;;;10.03;3.37;;;5.70;99.90;;;;;;4417195;28;656461;-72
2021/10/23 01:02:48;;;;;;;8.20;3.17;;;5.70;99.90;;;;;;4444116;28;657468;-72
2021/10/23 01:05:36;;;;;;;15.87;3.07;;;5.60;99.90;;;;;;4427962;28;655758;-72
2021/10/23 01:08:28;;;;;;;10.73;2.83;;;5.60;99.90;;;;;;4435698;28;657304;-72
2021/10/23 01:11:16;;;;;;;6.87;2.37;;;5.60;99.90;;;;;;4403597;28;656762;-73
2021/10/23 01:14:03;;;;;;;5.50;2.63;;;5.70;99.90;;;;;;4446225;28;655950;-72
2021/10/23 01:16:52;;;;;;;10.93;2.60;;;5.70;99.90;;;;;;4428361;28;655745;-73
2021/10/23 01:19:39;;;;;;;8.90;2.87;;;5.80;99.90;;;;;;4444876;28;656852;-72
2021/10/23 01:22:28;;;;;;;10.57;2.37;;;5.80;99.90;;;;;;4424992;28;655649;-72
2021/10/23 01:25:16;;;;;;;9.27;2.60;;;5.80;99.90;;;;;;4424457;28;656512;-73
2021/10/23 01:28:04;;;;;;;8.97;3.00;;;5.80;99.90;;;;;;4448490;28;656131;-72
2021/10/23 01:30:55;;;;;;;9.27;2.93;;;5.80;99.90;;;;;;4428702;28;656570;-73
2021/10/23 01:33:43;;;;;;;9.53;2.90;;;5.80;99.90;;;;;;4421118;28;655572;-72
2021/10/23 01:36:30;;;;;;;10.73;2.70;;;5.70;99.90;;;;;;4426986;28;655551;-72
2021/10/23 01:39:19;;;;;;;8.67;3.10;;;5.70;99.90;;;;;;4442626;28;657204;-72
2021/10/23 01:42:07;;;;;;;8.17;2.77;;;5.60;99.90;;;;;;4425276;28;655814;-72
2021/10/23 01:44:54;;;;;;;11.50;2.90;;;5.70;99.90;;;;;;4447059;28;655318;-72
2021/10/23 01:47:43;;;;;;;12.73;2.97;;;5.70;99.90;;;;;;4426365;28;657759;-72
2021/10/23 01:50:31;;;;;;;7.07;2.40;;;5.70;99.90;;;;;;4424225;28;656556;-73
2021/10/23 01:53:19;;;;;;;10.93;2.40;;;5.80;99.90;;;;;;4444812;28;656115;-72
2021/10/23 01:56:08;;;;;;;8.93;3.07;;;5.80;99.90;;;;;;4421609;28;656746;-72
2021/10/23 01:58:55;;;;;;;11.13;2.90;;;5.80;99.90;;;;;;4433199;28;656407;-72
2021/10/23 02:01:43;;;;;;;8.40;3.03;;;5.70;99.90;;;;;;4445558;28;657446;-72
2021/10/23 02:04:30;;;;;;;10.77;3.13;;;5.80;99.90;;;;;;4427557;28;655936;-73
2021/10/23 02:07:18;;;;;;;7.43;3.00;;;5.80;99.90;;;;;;4441477;28;657131;-72
2021/10/23 02:10:06;;;;;;;7.97;2.80;;;5.80;99.90;;;;;;4423943;28;656149;-73
2021/10/23 02:12:56;;;;;;;5.93;2.23;;;5.80;99.90;;;;;;4447085;28;656734;-72
2021/10/23 02:15:43;;;;;;;6.13;2.33;;;5.90;99.90;;;;;;4422057;28;656909;-71
2021/10/23 02:18:31;;;;;;;10.47;3.13;;;5.90;99.90;;;;;;4426737;28;655880;-71
2021/10/23 02:21:18;;;;;;;7.70;2.50;;;5.90;99.90;;;;;;4441603;28;658966;-71
2021/10/23 02:24:06;;;;;;;7.03;2.70;;;6.00;99.90;;;;;;4422842;28;655651;-72
2021/10/23 02:26:54;;;;;;;8.32;3.05;;;6.00;99.90;;;;;;4441622;28;655330;-71
2021/10/23 02:29:43;;;;;;;5.33;2.50;;;6.00;99.90;;;;;;4419821;28;655338;-72
2021/10/23 02:32:31;;;;;;;8.25;2.90;;;5.90;99.90;;;;;;4422856;28;656153;-73
2021/10/23 02:35:18;;;;;;;26.57;3.03;;;5.90;99.90;;;;;;4437000;28;655971;-72
2021/10/23 02:38:06;;;;;;;9.30;3.20;;;5.80;99.90;;;;;;4417367;28;656892;-72
2021/10/23 02:40:57;;;;;;;8.87;2.90;;;5.70;99.90;;;;;;4440246;28;656489;-72
2021/10/23 02:43:44;;;;;;;7.07;1.93;;;5.60;99.90;;;;;;4413204;28;656562;-72
2021/10/23 02:46:33;;;;;;;7.27;1.97;;;5.60;99.90;;;;;;4422738;28;655692;-72
2021/10/23 02:49:21;;;;;;;4.80;1.80;;;5.60;99.90;;;;;;4421867;28;655340;-72
2021/10/23 02:52:08;;;;;;;4.73;1.80;;;5.50;99.90;;;;;;4446078;28;656212;-71
2021/10/23 02:54:56;;;;;;;9.43;1.80;;;5.50;99.90;;;;;;4424528;28;655741;-73
2021/10/23 02:57:44;;;;;;;4.27;1.53;;;5.40;99.90;;;;;;4444750;28;655794;-72
2021/10/23 03:00:31;;;;;;;10.13;1.90;;;5.30;99.90;;;;;;4427340;28;656196;-72
2021/10/23 03:03:20;;;;;;;11.80;1.60;;;5.30;99.90;;;;;;4441523;28;657194;-72
2021/10/23 03:06:08;;;;;;;6.03;1.53;;;5.30;99.90;;;;;;4420862;28;656927;-72
2021/10/23 03:08:56;;;;;;;4.97;1.47;;;5.20;99.90;;;;;;4434530;28;656210;-72
2021/10/23 03:11:43;;;;;;;5.20;1.60;;;5.10;99.90;;;;;;4441683;28;655586;-72
2021/10/23 03:14:31;;;;;;;3.27;1.10;;;5.10;99.90;;;;;;4426255;28;655688;-71
2021/10/23 03:17:18;;;;;;;7.77;1.40;;;5.10;1.00;;;;;;4446462;28;656557;-71
2021/10/23 03:20:09;;;;;;;7.73;1.27;;;5.10;1.00;;;;;;4423230;28;654434;-72
2021/10/23 03:22:56;;;;;;;4.30;1.80;;;5.00;1.00;;;;;;4428271;28;654924;-73
2021/10/23 03:25:45;;;;;;;4.97;1.53;;;4.90;1.00;;;;;;4445765;28;655632;-72
2021/10/23 03:28:32;;;;;;;6.80;1.47;;;4.90;1.00;;;;;;4426331;28;655509;-73
2021/10/23 03:31:19;;;;;;;6.10;1.60;;;4.80;1.00;;;;;;4448520;28;654493;-72
2021/10/23 03:34:07;;;;;;;5.67;1.70;;;4.80;1.00;;;;;;4418871;28;655634;-72
2021/10/23 03:36:56;;;;;;;8.37;1.70;;;4.70;1.00;;;;;;4445507;28;653949;-71
2021/10/23 03:39:44;;;;;;;6.97;1.83;;;4.70;1.00;;;;;;4426417;28;655378;-72
2021/10/23 03:42:31;;;;;;;4.07;1.27;;;4.60;1.00;;;;;;4430587;28;654562;-72
2021/10/23 03:45:19;;;;;;;7.50;1.30;;;4.50;1.00;;;;;;4451163;28;654971;-72
2021/10/23 03:48:06;;;;;;;5.87;1.50;;;4.50;1.00;;;;;;4421337;28;654412;-73
2021/10/23 03:50:54;;;;;;;8.60;1.70;;;4.40;1.00;;;;;;4445492;28;655325;-71
2021/10/23 03:53:43;;;;;;;4.70;1.47;;;4.40;1.00;;;;;;4421322;28;654707;-73
2021/10/23 03:56:30;;;;;;;6.33;1.63;;;4.30;1.00;;;;;;4421904;28;656140;-73
2021/10/23 03:59:18;;;;;;;3.83;1.20;;;4.30;1.00;;;;;;4444427;28;654776;-72
2021/10/23 04:02:06;;;;;;;5.30;1.43;;;4.20;1.00;;;;;;4425199;28;655035;-72
2021/10/23 04:04:53;;;;;;;4.43;1.40;;;4.20;1.00;;;;;;4447221;28;655671;-72
2021/10/23 04:07:41;;;;;;;5.37;1.40;;;4.20;1.00;;;;;;4422992;28;654957;-72
2021/10/23 04:10:30;;;;;;;5.60;1.60;;;4.10;1.00;;;;;;4440649;28;654906;-72
2021/10/23 04:13:18;;;;;;;5.77;1.57;;;4.00;1.00;;;;;;4425688;28;655715;-72
2021/10/23 04:16:06;;;;;;;9.83;2.00;;;4.00;1.00;;;;;;4425042;28;654963;-72
2021/10/23 04:18:53;;;;;;;9.23;1.90;;;4.00;1.00;;;;;;4449184;28;655533;-71
2021/10/23 04:21:42;;;;;;;6.10;1.67;;;4.00;1.00;;;;;;4425450;28;654862;-73
2021/10/23 04:24:30;;;;;;;7.27;1.77;;;4.00;1.00;;;;;;4438168;28;654803;-72
2021/10/23 04:27:19;;;;;;;8.43;1.93;;;4.00;1.00;;;;;;4421793;28;655037;-72
2021/10/23 04:30:07;;;;;;;8.50;1.87;;;4.00;1.00;;;;;;4420745;28;655150;-72
2021/10/23 04:32:55;;;;;;;6.03;1.77;;;4.10;1.00;;;;;;4439242;28;655010;-73
2021/10/23 04:35:43;;;;;;;5.33;1.80;;;4.10;1.00;;;;;;4443244;28;656135;-72
2021/10/23 04:38:30;;;;;;;6.90;1.80;;;4.10;1.00;;;;;;4424625;28;655900;-73
2021/10/23 04:41:18;;;;;;;6.80;2.03;;;4.20;1.00;;;;;;4447448;28;654952;-72
2021/10/23 04:44:07;;;;;;;9.50;2.10;;;4.20;1.00;;;;;;4422073;28;655645;-73
2021/10/23 04:46:54;;;;;;;7.40;1.93;;;4.30;1.00;;;;;;4444670;28;654424;-72
2021/10/23 04:49:42;;;;;;;12.30;2.20;;;4.20;1.00;;;;;;4418227;28;655672;-72
2021/10/23 04:52:30;;;;;;;8.13;1.97;;;4.20;1.00;;;;;;4442154;28;656893;-71
2021/10/23 04:55:17;;;;;;;9.83;2.10;;;4.20;1.00;;;;;;4420152;28;655418;-71
2021/10/23 04:58:05;;;;;;;3.90;1.60;;;4.10;1.00;;;;;;4439091;28;655585;-72
2021/10/23 05:00:59;;;;;;;6.57;2.07;;;4.10;1.00;;;;;;4443641;28;655586;-71
2021/10/23 05:03:46;;;;;;;14.57;3.37;;;4.00;1.00;;;;;;4421824;28;654937;-72
2021/10/23 05:06:34;;;;;;;7.93;2.40;;;3.90;1.00;;;;;;4444215;28;655692;-71
2021/10/23 05:09:21;;;;;;;4.23;1.90;;;3.90;1.00;;;;;;4423285;28;654406;-73
2021/10/23 05:12:09;;;;;;;5.97;2.00;;;3.80;1.00;;;;;;4440988;28;655014;-72
2021/10/23 05:14:57;;;;;;;5.83;2.00;;;3.80;1.00;;;;;;4415372;28;654329;-72
2021/10/23 05:17:45;;;;;;;3.87;2.07;;;3.70;1.00;;;;;;4453168;28;654623;-72
2021/10/23 05:20:39;;;;;;;8.63;2.80;;;3.70;1.00;;;;;;4412661;28;654978;-72
2021/10/23 05:23:27;;;;;;;8.03;2.60;;;3.60;1.00;;;;;;4376012;28;654989;-72
2021/10/23 05:26:14;;;;;;;13.40;2.80;;;3.60;1.00;;;;;;4452758;28;654430;-71
2021/10/23 05:29:02;;;;;;;7.87;2.60;;;3.60;1.00;;;;;;4424498;28;655954;-72
2021/10/23 05:31:49;;;;;;;13.87;2.70;;;3.60;1.00;;;;;;4455397;28;654164;-72
2021/10/23 05:34:38;;;;;;;7.03;3.07;;;3.50;1.00;;;;;;4426383;28;656237;-72
2021/10/23 05:37:26;;;;;;;13.27;3.20;;;3.60;1.00;;;;;;4425405;28;654728;-72
2021/10/23 05:40:14;;;;;;;9.67;2.67;;;3.50;1.00;;;;;;4444140;28;656268;-72
2021/10/23 05:43:01;;;;;;;8.40;2.93;;;3.50;1.00;;;;;;4425019;28;654378;-72
2021/10/23 05:45:49;;;;;;;9.90;3.17;;;3.60;1.00;;;;;;4439357;28;654829;-72
2021/10/23 05:48:36;;;;;;;11.10;3.10;;;3.50;1.00;;;;;;4421345;28;654632;-72
2021/10/23 05:51:26;;;;;;;8.13;3.40;;;3.50;1.00;;;;;;4443609;28;656096;-72
2021/10/23 05:54:17;;;;;;;5.63;1.97;;;3.60;1.00;;;;;;4419578;28;655302;-72
2021/10/23 05:57:06;;;;;;;12.43;3.73;;;3.60;1.00;;;;;;4425737;28;654455;-72
2021/10/23 05:59:54;;;;;;;8.87;3.50;;;3.70;1.00;;;;;;4416015;28;655948;-72
2021/10/23 06:02:42;;;;;;;13.55;3.75;;;3.70;1.00;;;;;;4426845;28;655555;-72
2021/10/23 06:05:29;;;;;;;11.83;4.27;;;3.70;1.00;;;;;;4436967;28;655980;-72
2021/10/23 06:08:18;;;;;;;21.47;4.73;;;3.80;1.00;;;;;;4419684;28;656027;-72
2021/10/23 06:11:06;;;;;;;12.23;4.20;;;3.80;1.00;;;;;;4421917;28;655345;-73
2021/10/23 06:13:55;;;;;;;12.23;4.57;;;3.80;1.00;;;;;;4439349;28;656484;-73
2021/10/23 06:16:43;;;;;;;13.57;4.63;;;3.90;1.00;;;;;;4416554;28;655651;-72
2021/10/23 06:19:30;;;;;;;12.15;4.43;;;4.00;1.00;;;;;;4417475;28;656021;-74
2021/10/23 06:22:18;;;;;;;14.20;5.07;;;4.00;1.00;;;;;;4439572;28;656886;-72
2021/10/23 06:25:08;;;;;;;11.30;4.97;;;4.10;1.00;;;;;;4422611;28;655223;-74
2021/10/23 06:27:57;;;;;;;13.70;4.80;;;4.10;1.00;;;;;;4423953;28;656586;-72
2021/10/23 06:30:45;;;;;;;12.47;5.13;;;4.20;1.00;;;;;;4439520;28;655098;-72
2021/10/23 06:33:32;;;;;;;9.63;4.57;;;4.30;1.00;;;;;;4416822;28;656955;-72
2021/10/23 06:36:20;;;;;;;13.33;4.73;;;4.40;1.00;;;;;;4444680;28;654468;-72
2021/10/23 06:39:07;;;;;;;10.63;4.47;;;4.50;1.00;;;;;;4417401;28;656970;-72
2021/10/23 06:41:57;;;;;;;16.23;5.03;;;4.60;1.00;;;;;;4434325;28;656043;-72
2021/10/23 06:44:44;;;;;;;8.47;3.00;;;4.70;1.00;;;;;;4447889;28;655746;-72
2021/10/23 06:47:32;;;;;;;12.20;3.73;;;4.70;1.00;;;;;;4424004;28;655580;-72
2021/10/23 06:50:19;;;;;;;7.47;2.97;;;4.80;99.90;;;;;;4436696;28;655070;-72
2021/10/23 06:53:07;;;;;;;9.67;3.40;;;4.80;99.90;;;;;;4426379;28;656447;-73
2021/10/23 06:55:54;;;;;;;7.60;3.00;;;4.90;99.90;;;;;;4447192;28;655855;-73
2021/10/23 06:58:43;;;;;;;9.17;3.30;;;5.00;99.90;;;;;;4420753;28;656607;-72
2021/10/23 07:01:31;;;;;;;10.37;3.50;;;5.20;99.90;;;;;;4420258;28;656176;-73
2021/10/23 07:04:18;;;;;;;9.83;3.00;;;5.50;99.90;;;;;;4443376;28;656485;-72
2021/10/23 07:07:06;;;;;;;7.30;3.07;;;5.60;99.90;;;;;;4422188;28;656236;-71
2021/10/23 07:09:54;;;;;;;16.87;3.40;;;5.70;99.90;;;;;;4441416;28;656295;-72
2021/10/23 07:12:41;;;;;;;9.10;3.20;;;5.90;99.90;;;;;;4422388;28;656951;-72
2021/10/23 07:15:30;;;;;;;5.60;2.83;;;6.00;99.90;;;;;;4442618;28;655970;-73
2021/10/23 07:18:18;;;;;;;11.47;2.93;;;6.10;99.90;;;;;;4412914;28;656459;-72
2021/10/23 07:21:06;;;;;;;14.30;3.60;;;6.20;99.90;;;;;;4425445;28;656316;-70
2021/10/23 07:23:53;;;;;;;13.97;3.90;;;6.10;99.90;;;;;;4447338;28;657365;-72
2021/10/23 07:26:41;;;;;;;7.87;3.17;;;6.10;99.90;;;;;;4424886;28;656678;-71
2021/10/23 07:29:29;;;;;;;8.35;3.13;;;6.20;99.90;;;;;;4442248;28;656033;-71
2021/10/23 07:32:18;;;;;;;8.00;2.80;;;6.20;99.90;;;;;;4417250;28;655847;-72
2021/10/23 07:35:06;;;;;;;18.37;4.03;;;6.50;99.90;;;;;;4435132;28;655588;-73
2021/10/23 07:37:54;;;;;;;10.27;2.57;;;6.70;99.90;;;;;;4443336;28;657477;-71
2021/10/23 07:40:41;;;;;;;8.40;2.83;;;6.80;99.90;;;;;;4415811;28;656827;-70
2021/10/23 07:43:29;;;;;;;7.23;2.93;;;6.90;99.90;;;;;;4442285;28;655128;-71
2021/10/23 07:46:17;;;;;;;8.95;2.70;;;7.00;99.90;;;;;;4416876;28;655594;-70
2021/10/23 07:49:06;;;;;;;9.27;2.40;;;7.00;99.90;;;;;;4444605;28;655205;-70
2021/10/23 07:52:03;;;;;;;9.43;2.80;;;7.10;99.90;;;;;;4421354;28;656524;-70
2021/10/23 07:54:55;;;;;;;13.47;2.60;;;7.20;99.90;;;;;;4402233;28;655672;-72
2021/10/23 07:57:43;;;;;;;15.47;3.33;;;7.20;99.90;;;;;;4423910;28;656812;-70
2021/10/23 08:00:31;;;;;;;12.00;2.93;;;7.00;99.90;;;;;;4411654;28;657078;-71
2021/10/23 08:03:18;;;;;;;6.93;2.27;;;7.00;99.90;;;;;;4440297;28;657684;-70
2021/10/23 08:06:07;;;;;;;10.33;2.40;;;7.00;99.90;;;;;;4421665;28;655333;-72
2021/10/23 08:08:55;;;;;;;7.20;2.57;;;6.90;99.90;;;;;;4430151;28;656696;-72
2021/10/23 08:11:43;;;;;;;10.70;2.90;;;6.90;99.90;;;;;;4442926;28;656144;-73
2021/10/23 08:14:31;;;;;;;10.30;2.97;;;6.80;99.90;;;;;;4416263;28;657040;-73
2021/10/23 08:17:19;;;;;;;5.47;1.57;;;6.90;99.90;;;;;;4442571;28;657107;-71
2021/10/23 08:20:07;;;;;;;10.17;2.80;;;7.00;99.90;;;;;;4418347;28;655911;-71
2021/10/23 08:22:57;;;;;;;8.37;2.23;;;7.00;99.90;;;;;;4433657;28;657609;-73
2021/10/23 08:25:45;;;;;;;12.30;2.40;;;7.00;99.90;;;;;;4442279;28;655537;-72
2021/10/23 08:28:33;;;;;;;15.97;3.13;;;6.90;99.90;;;;;;4421239;28;657955;-72
2021/10/23 08:31:21;;;;;;;10.33;2.87;;;6.90;99.90;;;;;;4423843;28;657226;-71
2021/10/23 08:34:09;;;;;;;9.68;2.97;;;6.90;99.90;;;;;;4441391;28;657877;-71
2021/10/23 08:36:57;;;;;;;13.60;3.40;;;6.90;99.90;;;;;;4427231;28;655018;-72
2021/10/23 08:39:46;;;;;;;12.30;3.27;;;6.90;99.90;;;;;;4443343;28;656309;-72
2021/10/23 08:42:34;;;;;;;15.13;3.05;;;6.90;99.90;;;;;;4420388;28;656539;-73
2021/10/23 08:45:22;;;;;;;12.73;3.90;;;6.90;99.90;;;;;;4414658;28;656687;-71
2021/10/23 08:48:09;;;;;;;13.07;3.33;;;6.90;99.90;;;;;;4435662;28;657100;-71
2021/10/23 08:50:59;;;;;;;9.57;2.90;;;7.00;99.90;;;;;;4427005;28;657087;-72
2021/10/23 08:53:46;;;;;;;13.57;3.13;;;7.00;99.90;;;;;;4427551;28;655441;-72
2021/10/23 08:56:35;;;;;;;15.20;4.37;;;7.10;99.90;;;;;;4436350;28;657438;-71
2021/10/23 08:59:23;;;;;;;9.27;3.10;;;7.20;99.90;;;;;;4414826;28;657441;-73
2021/10/23 09:02:10;;;;;;;18.27;4.90;;;7.30;99.90;;;;;;4418717;28;655784;-72
2021/10/23 09:04:58;;;;;;;10.07;2.83;;;7.20;99.90;;;;;;4441197;28;657235;-72
2021/10/23 09:07:46;;;;;;;12.07;3.03;;;7.20;99.90;;;;;;4423366;28;656316;-71
2021/10/23 09:10:35;;;;;;;17.00;3.27;;;7.30;99.90;;;;;;4437013;28;656997;-71
2021/10/23 09:13:28;;;;;;;7.53;2.10;;;7.40;99.90;;;;;;4412934;28;657767;-70
2021/10/23 09:16:17;;;;;;;12.60;3.30;;;7.50;99.90;;;;;;4389815;28;656416;-71
2021/10/23 09:19:10;;;;;;;12.33;3.37;;;7.50;99.90;;;;;;4440163;28;656415;-74
2021/10/23 09:21:57;;;;;;;14.00;3.43;;;7.50;99.90;;;;;;4419262;28;657641;-70
2021/10/23 09:24:45;;;;;;;10.17;3.13;;;7.60;99.90;;;;;;4435321;28;656618;-70
2021/10/23 09:27:33;;;;;;;8.00;2.70;;;7.90;99.90;;;;;;4417464;28;657167;-70
2021/10/23 09:30:24;;;;;;;14.37;3.20;;;7.80;99.90;;;;;;4429535;28;655772;-72
2021/10/23 09:33:13;;;;;;;10.50;2.27;;;7.80;99.90;;;;;;4420108;28;656660;-71
2021/10/23 09:36:03;;;;;;;11.90;2.65;;;7.90;99.90;;;;;;4423392;28;656403;-71
2021/10/23 09:38:51;;;;;;;10.70;2.73;;;7.80;99.90;;;;;;4416273;28;656581;-71
2021/10/23 09:41:38;;;;;;;17.10;3.20;;;7.70;99.90;;;;;;4436089;28;657149;-72
2021/10/23 09:44:26;;;;;;;10.97;3.07;;;7.70;99.90;;;;;;4419079;28;656721;-72
2021/10/23 09:47:17;;;;;;;9.53;3.10;;;7.80;99.90;;;;;;4436511;28;657790;-72
2021/10/23 09:50:12;;;;;;;18.57;3.87;;;7.90;99.90;;;;;;4423232;28;655614;-71
2021/10/23 09:53:01;;;;;;;14.17;3.27;;;7.90;99.90;;;;;;4417864;28;656620;-69
2021/10/23 09:55:53;;;;;;;9.67;2.33;;;7.90;99.90;;;;;;4417568;28;656943;-71
2021/10/23 09:58:45;;;;;;;18.20;3.10;;;7.80;99.90;;;;;;4421659;28;655042;-72
2021/10/23 10:01:34;;;;;;;17.13;2.50;;;7.80;99.90;;;;;;4419756;28;657708;-70
2021/10/23 10:04:23;;;;;;;10.27;2.63;;;7.90;99.90;;;;;;4413761;28;656356;-72
2021/10/23 10:07:11;;;;;;;13.13;2.77;;;8.10;99.90;;;;;;4414884;28;656649;-71
2021/10/23 10:09:59;;;;;;;8.17;2.20;;;8.60;99.90;;;;;;4433821;28;657859;-70
2021/10/23 10:12:46;;;;;;;16.37;2.53;;;8.70;99.90;;;;;;4413645;28;657448;-71
2021/10/23 10:15:34;;;;;;;11.03;2.17;;;8.60;99.90;;;;;;4432349;28;657153;-72
2021/10/23 10:18:23;;;;;;;18.43;3.30;;;8.60;99.90;;;;;;4420415;28;656404;-72
2021/10/23 10:21:13;;;;;;;13.30;2.27;;;8.50;99.90;;;;;;4414235;28;656504;-72
2021/10/23 10:24:01;;;;;;;19.73;4.67;;;8.60;99.90;;;;;;4416571;28;656614;-71
2021/10/23 10:26:57;;;;;;;14.82;3.50;;;9.30;99.90;;;;;;4441118;28;657481;-72
2021/10/23 10:29:53;;;;;;;10.25;2.17;;;9.60;99.90;;;;;;4411271;28;657269;-72
2021/10/23 10:32:46;;;;;;;11.10;2.70;;;9.60;99.90;;;;;;4401880;28;656614;-71
2021/10/23 10:36:07;;;;;;;15.40;2.37;;;9.80;99.90;;;;;;4416515;28;658305;-71
2021/10/23 10:45:29;;;;;;;6.43;1.60;;;9.80;99.90;;;;;;4387889;28;657103;-71
2021/10/23 10:48:18;;;;;;;15.13;2.70;;;9.80;99.90;;;;;;4421619;28;655994;-71
2021/10/23 10:51:20;;;;;;;10.05;2.13;;;9.50;99.90;;;;;;4422163;28;657105;-72
2021/10/23 10:54:10;;;;;;;9.60;2.57;;;9.30;99.90;;;;;;4385979;28;657177;-72
2021/10/23 10:56:57;;;;;;;17.73;2.90;;;9.10;99.90;;;;;;4414952;28;656911;-71
2021/10/23 10:59:55;;;;;;;9.77;2.57;;;8.90;99.90;;;;;;4434964;28;657304;-72
2021/10/23 11:02:43;;;;;;;8.27;2.03;;;8.90;99.90;;;;;;4411416;28;656280;-72
2021/10/23 11:05:32;;;;;;;9.55;1.80;;;9.20;99.90;;;;;;4419394;28;655509;-73
2021/10/23 11:08:20;;;;;;;11.80;2.38;;;9.10;99.90;;;;;;4428053;28;656324;-72
2021/10/23 11:11:09;;;;;;;13.30;2.37;;;9.00;99.90;;;;;;4417606;28;658348;-70
2021/10/23 11:14:01;;;;;;;10.13;2.50;;;8.80;99.90;;;;;;4421047;28;656897;-70
2021/10/23 11:16:49;;;;;;;14.50;2.87;;;8.70;99.90;;;;;;4420924;28;657703;-72
2021/10/23 11:19:40;;;;;;;17.80;3.13;;;8.60;99.90;;;;;;4426574;28;657089;-72
2021/10/23 11:22:30;;;;;;;13.57;2.43;;;8.40;99.90;;;;;;4420425;28;656968;-72
2021/10/23 11:25:18;;;;;;;10.27;2.13;;;8.50;99.90;;;;;;4416120;28;658066;-73
2021/10/23 11:28:12;;;;;;;13.40;2.27;;;8.40;99.90;;;;;;4398671;28;656926;-71
2021/10/23 11:31:00;;;;;;;9.43;2.20;;;8.30;99.90;;;;;;4406860;28;656708;-72
2021/10/23 11:33:48;;;;;;;18.77;2.30;;;8.30;99.90;;;;;;4417021;28;655651;-70
2021/10/23 11:36:36;;;;;;;13.20;2.58;;;8.40;99.90;;;;;;4414833;28;656532;-70
2021/10/23 11:39:24;;;;;;;9.20;2.03;;;8.40;99.90;;;;;;4431552;28;657629;-70
2021/10/23 11:42:19;;;;;;;11.70;2.43;;;8.60;99.90;;;;;;4414435;28;656017;-71
2021/10/23 11:45:15;;;;;;;10.63;2.10;;;9.20;99.90;;;;;;4411693;28;657037;-72
2021/10/23 11:48:04;;;;;;;13.00;2.13;;;9.30;99.90;;;;;;4413571;28;656671;-72
2021/10/23 11:50:52;;;;;;;12.03;2.43;;;9.40;99.90;;;;;;4406843;28;657447;-73
2021/10/23 11:53:40;;;;;;;17.27;3.10;;;9.30;99.90;;;;;;4436738;28;656355;-73
2021/10/23 11:56:28;;;;;;;9.70;2.50;;;9.40;99.90;;;;;;4410278;28;656619;-72
2021/10/23 11:59:16;;;;;;;12.80;2.75;;;9.30;99.90;;;;;;4433915;28;655388;-72
2021/10/23 12:02:15;;;;;;;13.93;3.13;;;9.30;99.90;;;;;;4439932;28;657209;-72
2021/10/23 12:05:17;;;;;;;13.10;3.00;;;9.30;99.90;;;;;;4388185;28;657519;-72
2021/10/23 12:08:22;;;;;;;9.70;2.00;;;9.50;99.90;;;;;;4416559;28;656586;-72
2021/10/23 12:11:16;;;;;;;9.13;2.30;;;9.50;99.90;;;;;;4417328;28;655610;-72
2021/10/23 12:14:05;;;;;;;8.77;2.43;;;9.50;99.90;;;;;;4416221;28;656509;-71
2021/10/23 12:16:56;;;;;;;10.80;2.50;;;9.30;99.90;;;;;;4420189;28;656304;-71
2021/10/23 12:19:47;;;;;;;7.37;1.90;;;9.10;99.90;;;;;;4418816;28;657176;-72
2021/10/23 12:22:38;;;;;;;16.97;2.43;;;8.90;99.90;;;;;;4416240;28;656156;-72
2021/10/23 12:25:29;;;;;;;14.80;2.60;;;8.80;99.90;;;;;;4392066;28;656623;-73
2021/10/23 12:28:16;;;;;;;7.00;2.03;;;8.60;99.90;;;;;;4422850;28;656364;-72
2021/10/23 12:31:04;;;;;;;7.83;1.70;;;8.30;99.90;;;;;;4434415;28;656794;-72
2021/10/23 12:34:04;;;;;;;10.57;1.93;;;8.10;99.90;;;;;;4416520;28;655693;-72
2021/10/23 12:36:54;;;;;;;7.07;1.87;;;7.70;99.90;;;;;;4397316;28;657366;-72
2021/10/23 12:39:41;;;;;;;5.27;1.50;;;7.60;99.90;;;;;;4426178;28;655726;-72
2021/10/23 12:42:29;;;;;;;7.03;1.60;;;7.50;99.90;;;;;;4446276;28;655216;-72
2021/10/23 12:45:18;;;;;;;7.30;1.73;;;7.70;99.90;;;;;;4424078;28;656152;-71
2021/10/23 12:48:07;;;;;;;7.30;1.87;;;9.40;99.90;;;;;;4422647;28;655124;-73
2021/10/23 12:50:56;;;;;;;8.93;1.93;;;10.10;99.90;;;;;;4438188;28;655652;-72
2021/10/23 12:53:46;;;;;;;5.17;1.60;;;9.40;99.90;;;;;;4434201;28;657768;-72
2021/10/23 12:56:33;;;;;;;4.60;1.60;;;8.90;99.90;;;;;;4418932;28;655967;-72
2021/10/23 12:59:21;;;;;;;11.43;2.10;;;8.70;99.90;;;;;;4421183;28;655735;-72
2021/10/23 13:02:09;;;;;;;5.13;1.33;;;8.50;99.90;;;;;;4438326;28;657419;-72
2021/10/23 13:04:56;;;;;;;10.10;1.67;;;8.50;99.90;;;;;;4420623;28;655600;-72
2021/10/23 13:07:44;;;;;;;4.20;1.30;;;8.70;99.90;;;;;;4436710;28;657529;-72
2021/10/23 13:10:33;;;;;;;6.90;1.80;;;8.90;99.90;;;;;;4421404;28;656122;-72
2021/10/23 13:13:21;;;;;;;5.87;1.90;;;9.70;99.90;;;;;;4423156;28;655230;-72
2021/10/23 13:16:08;;;;;;;7.97;1.70;;;11.10;99.90;;;;;;4443029;28;655596;-71
2021/10/23 13:18:56;;;;;;;5.67;2.10;;;11.70;99.90;;;;;;4421420;28;656624;-72
2021/10/23 13:21:43;;;;;;;6.83;2.00;;;11.50;99.90;;;;;;4439685;28;656751;-71
2021/10/23 13:24:31;;;;;;;8.83;2.40;;;10.70;99.90;;;;;;4413706;28;656601;-71
2021/10/23 13:27:20;;;;;;;13.50;2.87;;;9.60;99.90;;;;;;4435492;28;656591;-70
2021/10/23 13:30:09;;;;;;;11.53;2.30;;;8.90;99.90;;;;;;4424796;28;657162;-71
2021/10/23 13:32:57;;;;;;;8.43;2.03;;;8.30;99.90;;;;;;4419155;28;656786;-72
2021/10/23 13:35:44;;;;;;;7.50;1.63;;;8.10;99.90;;;;;;4434373;28;655616;-72
2021/10/23 13:38:32;;;;;;;4.17;1.57;;;8.20;99.90;;;;;;4416211;28;655468;-71
2021/10/23 13:41:19;;;;;;;10.40;2.00;;;7.90;99.90;;;;;;4436674;28;655557;-71
2021/10/23 13:44:08;;;;;;;5.70;1.50;;;7.70;99.90;;;;;;4419088;28;656951;-72
2021/10/23 13:46:56;;;;;;;4.83;1.47;;;9.40;99.90;;;;;;4416147;28;655995;-71
2021/10/23 13:49:44;;;;;;;7.00;2.10;;;11.80;99.90;;;;;;4434872;28;656646;-71
2021/10/23 13:52:32;;;;;;;3.87;1.40;;;13.20;99.90;;;;;;4413906;28;656732;-70
2021/10/23 13:55:21;;;;;;;5.87;1.77;;;12.80;99.90;;;;;;4435632;28;657273;-72
2021/10/23 13:58:08;;;;;;;9.90;3.00;;;11.10;99.90;;;;;;4441951;28;656480;-72
2021/10/23 14:00:57;;;;;;;9.80;3.60;;;9.90;99.90;;;;;;4420342;28;656723;-71
2021/10/23 14:03:46;;;;;;;8.67;3.10;;;9.30;99.90;;;;;;4428184;28;655471;-71
2021/10/23 14:06:34;;;;;;;9.93;3.23;;;8.60;99.90;;;;;;4437000;28;656589;-71
2021/10/23 14:09:21;;;;;;;9.00;3.33;;;8.10;99.90;;;;;;4421843;28;655919;-72
2021/10/23 14:12:09;;;;;;;9.57;2.97;;;7.70;99.90;;;;;;4437604;28;655705;-70
2021/10/23 14:14:56;;;;;;;8.57;3.00;;;7.50;99.90;;;;;;4415357;28;656074;-71
2021/10/23 14:17:46;;;;;;;13.93;3.93;;;7.30;99.90;;;;;;4433805;28;656500;-72
2021/10/23 14:20:33;;;;;;;8.47;2.97;;;7.30;99.90;;;;;;4418117;28;657484;-71
2021/10/23 14:23:21;;;;;;;9.63;3.23;;;7.10;99.90;;;;;;4420721;28;655409;-70
2021/10/23 14:26:10;;;;;;;11.00;3.47;;;7.00;99.90;;;;;;4439642;28;655860;-72
2021/10/23 14:28:58;;;;;;;10.87;3.60;;;7.00;99.90;;;;;;4417264;28;657846;-71
2021/10/23 14:31:46;;;;;;;14.43;3.50;;;8.60;99.90;;;;;;4413992;28;656356;-71
2021/10/23 14:34:36;;;;;;;14.53;3.60;;;10.80;99.90;;;;;;4430203;28;657475;-72
2021/10/23 14:37:24;;;;;;;9.37;3.33;;;11.20;99.90;;;;;;4408972;28;657556;-72
2021/10/23 14:40:12;;;;;;;13.83;3.67;;;11.00;99.90;;;;;;4423183;28;656399;-72
2021/10/23 14:43:00;;;;;;;15.00;3.83;;;11.30;99.90;;;;;;4431360;28;657609;-72